Latest Weather Observations for Snowtown

IDS60801

Issued at 8:31 am CDT Monday 5 December 2016 (issued every 30 minutes, with the page automatically refreshed every 10 minutes)

About weather observations | Map of weather stations | Latest weather observations for SA | Other Formats
Station Details ID: 021133 Name: RAYVILLE PARK Lat: -33.77 Lon: 138.22 Height: 109.1 m
Data from the previous 72 hours. | See also: Recent months at Snowtown
Date/Time
CDT
Temp
°C
App
Temp
°C
Dew
Point
°C
Rel
Hum
%
Delta-T
°C
Wind Press
QNH
hPa
Press
MSL
hPa
Rain since
9am
mm
Dir  Spd
km/h
Gust
km/h
Spd
kts
Gust
kts
05/08:30am 16.4 12.0 10.3 67 3.2 SSE 24 30 13 16 1013.6 1013.2 1.4
05/08:00am 14.7 13.1 11.5 81 1.7 SSE 11 15 6 8 1013.9 1013.5 1.4
05/07:30am 13.9 11.8 11.2 84 1.4 S 13 17 7 9 1013.8 1013.4 1.4
05/07:00am 13.6 11.5 11.3 86 1.2 S 13 15 7 8 1013.7 1013.3 1.4
05/06:30am 12.8 10.5 10.5 86 1.2 S 13 15 7 8 1013.3 1012.9 1.4
05/06:00am 13.3 10.7 10.7 84 1.4 S 15 24 8 13 1012.5 1012.2 1.4
05/05:30am 13.8 10.5 11.0 83 1.5 SSW 19 26 10 14 1012.2 1011.9 1.4
05/05:00am 14.2 11.3 11.0 81 1.7 SSW 17 22 9 12 1011.8 1011.5 1.4
05/04:30am 14.3 11.5 11.5 83 1.5 SSW 17 24 9 13 1011.1 1010.7 1.4
05/04:00am 14.7 12.0 11.8 83 1.6 SW 17 22 9 12 1011.2 1010.8 1.4
05/03:30am 15.3 12.8 12.4 83 1.6 SW 17 22 9 12 1011.9 1011.6 1.4
05/03:00am 15.0 13.9 13.0 88 1.1 SSW 11 17 6 9 1011.3 1011.0 1.4
05/02:30am 14.6 13.3 12.5 87 1.2 SSW 11 17 6 9 1011.2 1010.8 1.4
05/02:00am 15.5 13.6 13.0 85 1.4 SW 15 19 8 10 1011.3 1011.0 1.4
05/01:30am 16.3 15.0 13.6 84 1.5 SSW 13 19 7 10 1011.4 1011.1 1.4
05/01:00am 16.6 14.6 13.9 84 1.5 SW 17 22 9 12 1011.2 1010.8 1.4
05/12:30am 16.9 14.6 14.2 84 1.5 SW 19 24 10 13 1010.9 1010.5 1.4
05/12:00am 17.8 16.7 15.2 85 1.5 SW 15 24 8 13 1011.1 1010.7 1.4
 
Date/Time
CDT
Temp
°C
App
Temp
°C
Dew
Point
°C
Rel
Hum
%
Delta-T
°C
Wind Press
QNH
hPa
Press
MSL
hPa
Rain since
9am
mm
Dir  Spd
km/h
Gust
km/h
Spd
kts
Gust
kts
04/11:30pm 18.3 18.1 15.6 84 1.6 SSE 11 20 6 11 1010.5 1010.1 1.4
04/11:00pm 18.9 15.4 15.4 80 2.1 WSW 28 37 15 20 1009.6 1009.2 1.4
04/10:30pm 20.0 17.3 14.6 71 3.2 SW 22 33 12 18 1009.3 1008.9 1.4
04/10:00pm 21.0 17.5 14.4 66 3.9 SSW 26 39 14 21 1008.4 1008.0 1.4
04/09:30pm 22.0 17.4 14.6 63 4.4 WSW 32 44 17 24 1007.3 1006.9 1.4
04/09:00pm 24.5 20.6 17.0 63 4.7 WSW 33 54 18 29 1006.6 1006.2 1.4
04/08:55pm 26.1 22.8 16.9 57 5.7 WSW 30 54 16 29 1006.5 1006.1 1.4
04/08:30pm 27.6 25.8 15.6 48 7.4 WNW 19 30 10 16 1005.7 1005.3 1.4
04/08:00pm 29.1 27.0 13.7 38 9.2 W 17 20 9 11 1005.1 1004.7 1.4
04/07:30pm 29.5 27.7 13.3 37 9.7 NNW 15 19 8 10 1004.6 1004.2 1.4
04/07:00pm 30.5 27.8 12.9 34 10.5 N 19 28 10 15 1004.2 1003.8 1.4
04/06:30pm 30.8 27.5 12.7 33 10.8 N 22 32 12 17 1003.9 1003.5 1.4
04/06:00pm 31.1 27.5 12.9 32 10.9 NNW 24 35 13 19 1003.9 1003.5 1.4
04/05:30pm 31.0 27.5 13.3 34 10.7 NNW 24 35 13 19 1004.2 1003.8 1.4
04/05:00pm 31.1 27.3 14.7 37 10.1 N 28 37 15 20 1004.0 1003.6 1.4
04/04:30pm 29.8 26.8 14.7 39 9.3 N 24 32 13 17 1004.3 1003.9 1.4
04/04:00pm 29.4 26.0 15.9 44 8.4 N 28 37 15 20 1004.3 1003.9 1.4
04/03:30pm 28.6 26.5 16.2 47 7.7 NNE 22 30 12 16 1004.6 1004.2 1.4
04/03:00pm 28.4 25.0 15.7 46 7.9 N 28 39 15 21 1005.3 1004.9 1.4
04/02:30pm 26.3 25.7 18.9 63 4.8 NNE 20 30 11 16 1005.9 1005.5 1.4
04/02:00pm 24.7 24.0 18.6 69 3.9 NNE 20 30 11 16 1006.7 1006.3 1.4
04/01:30pm 24.3 25.2 20.0 77 2.8 N 15 19 8 10 1007.5 1007.1 1.4
04/01:00pm 23.6 24.8 19.9 80 2.4 NNE 13 19 7 10 1007.9 1007.5 1.4
04/12:30pm 22.9 23.5 19.5 81 2.2 NNE 15 19 8 10 1009.1 1008.7 1.4
04/12:00pm 22.8 24.1 20.1 85 1.7 NNE 13 19 7 10 1009.4 1009.0 1.4
04/11:30am 22.5 24.5 19.9 85 1.7 E 9 11 5 6 1009.6 1009.2 1.0
04/11:00am 22.1 25.1 19.3 84 1.8 E 2 7 1 4 1009.4 1009.0 0.8
04/10:30am 22.0 24.1 20.1 89 1.2 E 9 11 5 6 1009.7 1009.3 0.6
04/10:00am 21.8 23.1 19.2 85 1.7 ENE 11 17 6 9 1010.0 1009.6 0.2
04/09:30am 21.0 21.1 18.4 85 1.6 ENE 15 20 8 11 1009.5 1009.1 0.2
04/09:00am 21.4 22.2 17.4 78 2.5 N 9 17 5 9 1010.2 1009.8 1.4
04/08:30am 20.8 21.2 18.2 85 1.6 NNW 13 17 7 9 1010.2 1009.8 1.2
04/08:00am 21.1 19.7 16.9 77 2.6 NW 20 30 11 16 1010.1 1009.7 0.6
04/07:30am 22.1 19.2 16.1 69 3.6 WNW 26 35 14 19 1009.7 1009.3 0.2
04/07:00am 20.0 16.5 16.4 80 2.2 NW 30 39 16 21 1009.5 1009.1 0.0
04/06:44am 20.3 14.2 16.1 77 2.5 NW 43 61 23 33 1009.3 1008.9 0.0
04/06:30am 21.7 12.5 14.6 64 4.2 NW 56 76 30 41 1008.6 1008.2 0.0
04/06:28am 22.4 13.2 14.5 61 4.7 NW 56 76 30 41 1008.5 1008.1 0.0
04/06:00am 27.6 16.3 8.0 29 10.7 NNW 57 80 31 43 1007.1 1006.7 0.0
04/05:56am 27.8 17.7 7.6 28 10.9 NNW 50 80 27 43 1006.8 1006.4 0.0
04/05:47am 26.4 21.7 7.9 31 10.0 NNE 22 54 12 29 1007.2 1006.8 0.0
04/05:30am 22.1 19.4 8.9 43 7.1 NNE 13 20 7 11 1007.6 1007.2 0.0
04/05:00am 18.9 16.5 9.9 56 4.8 NNW 13 15 7 8 1007.2 1006.8 0.0
04/04:30am 17.1 16.5 10.5 65 3.5 S 4 7 2 4 1007.5 1007.1 0.0
04/04:00am 16.7 16.7 9.9 64 3.6 CALM 0 0 0 0 1007.4 1007.0 0.0
04/03:30am 16.0 15.9 9.4 65 3.4 CALM 0 0 0 0 1007.5 1007.1 0.0
04/03:00am 15.5 15.0 9.2 66 3.3 S 2 6 1 3 1007.9 1007.5 0.0
04/02:30am 15.9 14.4 9.3 65 3.4 S 7 9 4 5 1008.3 1007.9 0.0
04/02:00am 15.4 13.6 9.3 67 3.2 S 9 11 5 6 1008.7 1008.3 0.0
04/01:30am 15.4 13.7 9.7 69 3.0 S 9 9 5 5 1009.1 1008.7 0.0
04/01:00am 16.9 15.0 9.1 60 4.1 SSW 9 13 5 7 1009.3 1008.9 0.0
04/12:30am 17.6 14.8 10.0 61 4.0 SW 15 17 8 9 1009.7 1009.3 0.0
04/12:00am 17.1 15.2 10.5 65 3.5 SW 11 15 6 8 1010.1 1009.7 0.0
 
Date/Time
CDT
Temp
°C
App
Temp
°C
Dew
Point
°C
Rel
Hum
%
Delta-T
°C
Wind Press
QNH
hPa
Press
MSL
hPa
Rain since
9am
mm
Dir  Spd
km/h
Gust
km/h
Spd
kts
Gust
kts
03/11:30pm 18.0 15.8 10.9 63 3.9 SW 13 15 7 8 1010.1 1009.7 0.0
03/11:00pm 18.2 16.6 11.7 66 3.6 SW 11 15 6 8 1010.2 1009.8 0.0
03/10:30pm 18.7 16.1 12.0 65 3.7 SW 17 20 9 11 1010.3 1009.9 0.0
03/10:00pm 18.7 16.0 11.8 64 3.8 SW 17 20 9 11 1010.5 1010.1 0.0
03/09:30pm 19.6 17.7 11.9 61 4.3 SW 13 17 7 9 1010.6 1010.2 0.0
03/09:00pm 21.0 18.5 12.2 57 5.0 SSW 17 20 9 11 1010.3 1009.9 0.0
03/08:30pm 22.4 18.2 9.6 44 7.0 SSW 22 30 12 16 1010.2 1009.8 0.0
03/08:00pm 24.6 20.0 9.7 39 8.2 SSW 24 32 13 17 1009.9 1009.5 0.0
03/07:30pm 27.3 23.9 9.2 32 10.0 SSW 17 26 9 14 1009.8 1009.4 0.0
03/07:00pm 28.6 24.3 9.3 30 10.8 SSW 22 28 12 15 1010.0 1009.6 0.0
03/06:30pm 29.4 25.7 10.0 30 11.0 S 20 28 11 15 1009.8 1009.4 0.0
03/06:00pm 33.0 28.3 7.8 21 14.0 SSW 22 32 12 17 1009.5 1009.1 0.0
03/05:30pm 34.5 31.5 4.1 15 16.1 W 9 22 5 12 1009.4 1009.0 0.0
03/05:00pm 33.3 29.5 4.1 16 15.3 WNW 13 24 7 13 1009.7 1009.3 0.0
03/04:30pm 33.2 28.8 4.9 17 15.1 WNW 17 35 9 19 1010.0 1009.6 0.0
03/04:00pm 33.1 28.9 5.6 18 14.8 NW 17 32 9 17 1010.2 1009.8 0.0
03/03:30pm 32.2 27.4 5.7 19 14.2 WNW 20 33 11 18 1010.6 1010.2 0.0
03/03:00pm 34.3 29.3 6.6 18 15.2 WNW 22 35 12 19 1010.5 1010.1 0.0
03/02:30pm 33.6 28.3 6.8 19 14.7 WNW 24 35 13 19 1010.6 1010.2 0.0
03/02:00pm 34.2 29.4 7.3 19 14.9 NW 22 33 12 18 1010.6 1010.2 0.0
03/01:30pm 34.1 29.3 5.6 17 15.4 WNW 20 33 11 18 1010.7 1010.3 0.0
03/01:00pm 32.8 28.5 5.4 18 14.6 NNW 17 28 9 15 1010.8 1010.4 0.0
03/12:30pm 33.2 29.5 6.5 19 14.6 NNW 15 32 8 17 1010.9 1010.5 0.0
03/12:00pm 31.8 28.1 6.1 20 13.8 NNW 15 30 8 16 1011.2 1010.8 0.0
03/11:30am 29.8 27.1 5.8 22 12.7 NNW 9 19 5 10 1011.5 1011.2 0.0
03/11:00am 28.0 24.3 4.3 22 12.1 NNE 13 20 7 11 1012.0 1011.7 0.0
03/10:30am 26.5 23.2 4.3 24 11.2 NE 11 17 6 9 1012.3 1012.0 0.0
03/10:00am 24.2 20.4 4.0 27 10.0 NNE 13 17 7 9 1012.6 1012.3 0.0
03/09:30am 22.8 19.8 4.3 30 9.1 ENE 9 17 5 9 1013.0 1012.6 0.0
03/09:00am 20.3 17.4 4.4 35 7.7 E 9 15 5 8 1013.5 1013.1 0.0
03/08:30am 19.2 16.8 5.3 40 6.8 ENE 7 11 4 6 1013.6 1013.2 0.0
03/08:00am 16.7 14.4 5.9 49 5.3 NE 7 11 4 6 1013.4 1013.0 0.0
03/07:30am 14.0 13.2 6.6 61 3.6 CALM 0 0 0 0 1013.3 1012.9 0.0
03/07:00am 12.4 12.2 9.2 81 1.6 CALM 0 0 0 0 1013.5 1013.1 0.0
03/06:30am 9.5 7.8 7.6 88 0.9 SW 6 7 3 4 1013.3 1012.9 0.0
03/06:00am 7.7 6.8 6.0 89 0.8 CALM 0 0 0 0 1013.2 1012.8 0.0
03/05:30am 7.8 6.9 6.1 89 0.8 CALM 0 2 0 1 1013.0 1012.6 0.0
03/05:00am 8.1 7.3 6.4 89 0.8 CALM 0 7 0 4 1012.7 1012.4 0.0
03/04:30am 8.5 6.0 6.6 88 0.9 SW 9 11 5 6 1012.6 1012.3 0.0
03/04:00am 8.9 6.5 7.0 88 0.9 SW 9 13 5 7 1012.6 1012.3 0.0
03/03:30am 9.3 6.7 7.7 90 0.8 SW 11 13 6 7 1012.5 1012.2 0.0
03/03:00am 8.7 6.3 6.8 88 0.9 SW 9 11 5 6 1012.5 1012.2 0.0
03/02:30am 9.1 6.4 7.4 89 0.8 SW 11 13 6 7 1013.0 1012.6 0.0
03/02:00am 9.5 7.2 7.6 88 0.9 SW 9 11 5 6 1013.2 1012.8 0.0
03/01:30am 10.2 8.1 8.1 87 1.0 SW 9 11 5 6 1013.4 1013.0 0.0
03/01:00am 10.8 8.9 8.9 88 0.9 SW 9 13 5 7 1013.6 1013.2 0.0
03/12:30am 11.2 9.0 9.5 89 0.9 SW 11 13 6 7 1014.2 1013.8 0.0
03/12:00am 11.3 9.1 9.4 88 1.0 SW 11 15 6 8 1014.1 1013.7 0.0
 
Date/Time
CDT
Temp
°C
App
Temp
°C
Dew
Point
°C
Rel
Hum
%
Delta-T
°C
Wind Press
QNH
hPa
Press
MSL
hPa
Rain since
9am
mm
Dir  Spd
km/h
Gust
km/h
Spd
kts
Gust
kts
02/11:30pm 11.1 9.1 8.8 86 1.1 SW 9 13 5 7 1014.2 1013.8 0.0
02/11:00pm 11.4 9.0 8.8 84 1.3 SW 11 13 6 7 1014.2 1013.8 0.0
02/10:30pm 12.7 11.0 8.4 75 2.1 S 7 13 4 7 1014.6 1014.2 0.0
02/10:00pm 14.5 11.8 10.3 76 2.2 SSW 15 19 8 10 1014.6 1014.2 0.0
02/09:30pm 14.9 12.2 10.5 75 2.3 SSW 15 20 8 11 1014.3 1013.9 0.0
02/09:00pm 15.6 12.2 10.6 72 2.7 S 19 26 10 14 1014.2 1013.8 0.0
02/08:30pm 16.5 12.5 10.4 67 3.2 S 22 30 12 16 1014.0 1013.6 0.0
02/08:00pm 17.6 13.1 10.0 61 4.0 S 24 32 13 17 1013.5 1013.1 0.0
02/07:30pm 18.8 14.1 9.3 54 5.0 S 24 35 13 19 1013.5 1013.1 0.0
02/07:00pm 20.1 15.4 9.1 49 5.8 S 24 35 13 19 1013.1 1012.7 0.0
02/06:30pm 21.0 16.3 9.3 47 6.3 S 24 33 13 18 1012.9 1012.5 0.0
02/06:00pm 22.7 17.5 8.8 41 7.4 SSW 26 35 14 19 1012.6 1012.3 0.0
02/05:30pm 24.4 19.5 8.4 36 8.6 SSW 24 35 13 19 1012.4 1012.1 0.0
02/05:00pm 24.1 18.8 8.5 37 8.4 SSW 26 37 14 20 1012.1 1011.8 0.0
02/04:30pm 23.9 18.6 8.3 37 8.3 SSW 26 35 14 19 1012.1 1011.8 0.0
02/04:00pm 24.0 18.7 8.4 37 8.4 S 26 35 14 19 1012.0 1011.7 0.0
02/03:30pm 24.9 19.7 8.8 36 8.7 SSW 26 35 14 19 1012.1 1011.8 0.0
02/03:00pm 24.4 19.7 9.2 38 8.3 SSW 24 35 13 19 1012.3 1012.0 0.0
02/02:30pm 24.4 20.0 8.8 37 8.4 S 22 33 12 18 1012.3 1012.0 0.0
02/02:00pm 26.3 21.6 9.2 34 9.4 S 24 39 13 21 1012.4 1012.1 0.0
02/01:30pm 23.7 18.8 10.0 42 7.5 SSW 26 35 14 19 1012.7 1012.4 0.0
02/01:00pm 24.2 20.1 7.8 35 8.7 S 19 33 10 18 1013.0 1012.6 0.0
02/12:30pm 23.9 19.3 5.8 31 9.2 S 19 33 10 18 1013.2 1012.8 0.0
02/12:00pm 24.7 20.8 6.9 32 9.3 S 17 28 9 15 1013.4 1013.0 0.0
02/11:30am 22.5 18.1 6.7 36 8.1 SSE 19 28 10 15 1013.6 1013.2 0.0
02/11:00am 22.2 18.4 7.6 39 7.6 SSE 17 26 9 14 1013.7 1013.3 0.0
02/10:30am 21.5 17.2 9.4 46 6.5 SSE 22 35 12 19 1013.6 1013.2 0.0
02/10:00am 20.0 15.3 9.3 50 5.7 SSE 24 33 13 18 1013.8 1013.4 0.0
02/09:30am 19.8 15.7 10.0 53 5.3 SSE 22 30 12 16 1013.9 1013.5 0.0
02/09:00am 18.3 13.9 10.4 60 4.3 SSE 24 33 13 18 1013.8 1013.4 0.0

Other Formats:

Comma delimited format used in spreadsheet applications
http://www.bom.gov.au/fwo/IDS60801/IDS60801.95670.axf

JavaScript Object Notation format (JSON) in row-major order
http://www.bom.gov.au/fwo/IDS60801/IDS60801.95670.json